sensor_id;sensor_type;location;lat;lon;timestamp;temperature;humidity
15630;DHT22;7914;50.842;0.166;2022-07-05T00:01:10;14.20;99.90
15630;DHT22;7914;50.842;0.166;2022-07-05T00:03:36;14.10;99.90
15630;DHT22;7914;50.842;0.166;2022-07-05T00:06:01;14.00;99.90
15630;DHT22;7914;50.842;0.166;2022-07-05T00:08:27;14.00;99.90
15630;DHT22;7914;50.842;0.166;2022-07-05T00:10:53;13.90;99.90
15630;DHT22;7914;50.842;0.166;2022-07-05T00:13:19;13.90;99.90
15630;DHT22;7914;50.842;0.166;2022-07-05T00:15:44;13.90;99.90
15630;DHT22;7914;50.842;0.166;2022-07-05T00:18:10;13.90;99.90
15630;DHT22;7914;50.842;0.166;2022-07-05T00:20:35;13.80;99.90
15630;DHT22;7914;50.842;0.166;2022-07-05T00:23:01;13.80;99.90
15630;DHT22;7914;50.842;0.166;2022-07-05T00:25:27;13.70;99.90
15630;DHT22;7914;50.842;0.166;2022-07-05T00:27:52;13.70;99.90
15630;DHT22;7914;50.842;0.166;2022-07-05T00:30:21;13.60;99.90
15630;DHT22;7914;50.842;0.166;2022-07-05T00:32:47;13.60;99.90
15630;DHT22;7914;50.842;0.166;2022-07-05T00:35:12;13.60;99.90
15630;DHT22;7914;50.842;0.166;2022-07-05T00:37:38;13.60;99.90
15630;DHT22;7914;50.842;0.166;2022-07-05T00:40:05;13.50;99.90
15630;DHT22;7914;50.842;0.166;2022-07-05T00:42:33;13.50;99.90
15630;DHT22;7914;50.842;0.166;2022-07-05T00:44:59;13.50;99.90
15630;DHT22;7914;50.842;0.166;2022-07-05T00:47:25;13.60;99.90
15630;DHT22;7914;50.842;0.166;2022-07-05T00:49:51;13.50;99.90
15630;DHT22;7914;50.842;0.166;2022-07-05T00:52:17;13.40;99.90
15630;DHT22;7914;50.842;0.166;2022-07-05T00:54:42;13.50;99.90
15630;DHT22;7914;50.842;0.166;2022-07-05T00:57:08;13.50;99.90
15630;DHT22;7914;50.842;0.166;2022-07-05T00:59:34;13.50;99.90
15630;DHT22;7914;50.842;0.166;2022-07-05T01:02:00;13.50;99.90
15630;DHT22;7914;50.842;0.166;2022-07-05T01:04:26;13.60;99.90
15630;DHT22;7914;50.842;0.166;2022-07-05T01:06:52;13.70;99.90
15630;DHT22;7914;50.842;0.166;2022-07-05T01:09:20;13.70;99.90
15630;DHT22;7914;50.842;0.166;2022-07-05T01:11:49;13.80;99.90
15630;DHT22;7914;50.842;0.166;2022-07-05T01:14:18;13.80;99.90
15630;DHT22;7914;50.842;0.166;2022-07-05T01:16:44;13.90;99.90
15630;DHT22;7914;50.842;0.166;2022-07-05T01:19:11;13.90;99.90
15630;DHT22;7914;50.842;0.166;2022-07-05T01:21:39;14.00;99.90
15630;DHT22;7914;50.842;0.166;2022-07-05T01:24:09;14.00;99.90
15630;DHT22;7914;50.842;0.166;2022-07-05T01:26:36;14.00;99.90
15630;DHT22;7914;50.842;0.166;2022-07-05T01:29:02;14.10;99.90
15630;DHT22;7914;50.842;0.166;2022-07-05T01:31:28;14.10;99.90
15630;DHT22;7914;50.842;0.166;2022-07-05T01:33:55;14.00;99.90
15630;DHT22;7914;50.842;0.166;2022-07-05T01:36:21;14.00;99.90
15630;DHT22;7914;50.842;0.166;2022-07-05T01:38:47;14.00;99.90
15630;DHT22;7914;50.842;0.166;2022-07-05T01:41:13;14.00;99.90
15630;DHT22;7914;50.842;0.166;2022-07-05T01:43:39;13.90;99.90
15630;DHT22;7914;50.842;0.166;2022-07-05T01:46:05;13.90;99.90
15630;DHT22;7914;50.842;0.166;2022-07-05T01:48:35;13.90;99.90
15630;DHT22;7914;50.842;0.166;2022-07-05T01:51:24;13.80;99.90
15630;DHT22;7914;50.842;0.166;2022-07-05T01:53:52;13.70;99.90
15630;DHT22;7914;50.842;0.166;2022-07-05T01:56:19;13.60;99.90
15630;DHT22;7914;50.842;0.166;2022-07-05T01:58:45;13.60;99.90
15630;DHT22;7914;50.842;0.166;2022-07-05T02:01:12;13.50;99.90
15630;DHT22;7914;50.842;0.166;2022-07-05T02:03:39;13.50;99.90
15630;DHT22;7914;50.842;0.166;2022-07-05T02:06:05;13.50;99.90
15630;DHT22;7914;50.842;0.166;2022-07-05T02:08:33;13.50;99.90
15630;DHT22;7914;50.842;0.166;2022-07-05T02:10:58;13.40;99.90
15630;DHT22;7914;50.842;0.166;2022-07-05T02:13:24;13.50;99.90
15630;DHT22;7914;50.842;0.166;2022-07-05T02:15:50;13.40;99.90
15630;DHT22;7914;50.842;0.166;2022-07-05T02:18:16;13.40;99.90
15630;DHT22;7914;50.842;0.166;2022-07-05T02:20:42;13.30;99.90
15630;DHT22;7914;50.842;0.166;2022-07-05T02:23:08;13.30;99.90
15630;DHT22;7914;50.842;0.166;2022-07-05T02:25:34;13.20;99.90
15630;DHT22;7914;50.842;0.166;2022-07-05T02:28:00;13.20;99.90
15630;DHT22;7914;50.842;0.166;2022-07-05T02:30:27;13.20;99.90
15630;DHT22;7914;50.842;0.166;2022-07-05T02:32:53;13.20;99.90
15630;DHT22;7914;50.842;0.166;2022-07-05T02:35:19;13.20;99.90
15630;DHT22;7914;50.842;0.166;2022-07-05T02:37:45;13.10;99.90
15630;DHT22;7914;50.842;0.166;2022-07-05T02:40:12;13.10;99.90
15630;DHT22;7914;50.842;0.166;2022-07-05T02:42:39;13.10;99.90
15630;DHT22;7914;50.842;0.166;2022-07-05T02:45:06;13.00;99.90
15630;DHT22;7914;50.842;0.166;2022-07-05T02:47:35;13.00;99.90
15630;DHT22;7914;50.842;0.166;2022-07-05T02:50:08;13.00;99.90
15630;DHT22;7914;50.842;0.166;2022-07-05T02:52:35;13.10;99.90
15630;DHT22;7914;50.842;0.166;2022-07-05T02:55:03;13.10;99.90
15630;DHT22;7914;50.842;0.166;2022-07-05T02:57:29;13.00;99.90
15630;DHT22;7914;50.842;0.166;2022-07-05T02:59:55;13.00;99.90
15630;DHT22;7914;50.842;0.166;2022-07-05T03:02:22;13.00;99.90
15630;DHT22;7914;50.842;0.166;2022-07-05T03:04:48;13.00;99.90
15630;DHT22;7914;50.842;0.166;2022-07-05T03:07:15;12.90;99.90
15630;DHT22;7914;50.842;0.166;2022-07-05T03:09:40;12.90;99.90
15630;DHT22;7914;50.842;0.166;2022-07-05T03:12:06;12.90;99.90
15630;DHT22;7914;50.842;0.166;2022-07-05T03:14:32;12.90;99.90
15630;DHT22;7914;50.842;0.166;2022-07-05T03:16:58;12.90;99.90
15630;DHT22;7914;50.842;0.166;2022-07-05T03:19:24;12.80;99.90
15630;DHT22;7914;50.842;0.166;2022-07-05T03:21:50;12.80;99.90
15630;DHT22;7914;50.842;0.166;2022-07-05T03:24:15;12.80;99.90
15630;DHT22;7914;50.842;0.166;2022-07-05T03:26:41;12.70;99.90
15630;DHT22;7914;50.842;0.166;2022-07-05T03:29:07;12.70;99.90
15630;DHT22;7914;50.842;0.166;2022-07-05T03:31:33;12.60;99.90
15630;DHT22;7914;50.842;0.166;2022-07-05T03:33:59;12.60;99.90
15630;DHT22;7914;50.842;0.166;2022-07-05T03:36:24;12.60;99.90
15630;DHT22;7914;50.842;0.166;2022-07-05T03:38:50;12.60;99.90
15630;DHT22;7914;50.842;0.166;2022-07-05T03:41:16;12.60;99.90
15630;DHT22;7914;50.842;0.166;2022-07-05T03:43:42;12.60;99.90
15630;DHT22;7914;50.842;0.166;2022-07-05T03:46:07;12.50;99.90
15630;DHT22;7914;50.842;0.166;2022-07-05T03:48:33;12.50;99.90
15630;DHT22;7914;50.842;0.166;2022-07-05T03:50:59;12.50;99.90
15630;DHT22;7914;50.842;0.166;2022-07-05T03:53:25;12.50;99.90
15630;DHT22;7914;50.842;0.166;2022-07-05T03:55:51;12.50;99.90
15630;DHT22;7914;50.842;0.166;2022-07-05T03:58:16;12.50;99.90
15630;DHT22;7914;50.842;0.166;2022-07-05T04:00:42;12.40;99.90
15630;DHT22;7914;50.842;0.166;2022-07-05T04:03:08;12.50;99.90
15630;DHT22;7914;50.842;0.166;2022-07-05T04:05:33;12.50;99.90
15630;DHT22;7914;50.842;0.166;2022-07-05T04:07:59;12.50;99.90
15630;DHT22;7914;50.842;0.166;2022-07-05T04:10:25;12.50;99.90
15630;DHT22;7914;50.842;0.166;2022-07-05T04:12:51;12.50;99.90
15630;DHT22;7914;50.842;0.166;2022-07-05T04:15:16;12.50;99.90
15630;DHT22;7914;50.842;0.166;2022-07-05T04:17:51;12.50;99.90
15630;DHT22;7914;50.842;0.166;2022-07-05T04:20:17;12.50;99.90
15630;DHT22;7914;50.842;0.166;2022-07-05T04:22:43;12.50;99.90
15630;DHT22;7914;50.842;0.166;2022-07-05T04:25:10;12.50;99.90
15630;DHT22;7914;50.842;0.166;2022-07-05T04:27:49;12.60;99.90
15630;DHT22;7914;50.842;0.166;2022-07-05T04:30:17;12.60;99.90
15630;DHT22;7914;50.842;0.166;2022-07-05T04:32:43;12.70;99.90
15630;DHT22;7914;50.842;0.166;2022-07-05T04:35:10;12.70;99.90
15630;DHT22;7914;50.842;0.166;2022-07-05T04:37:36;12.70;99.90
15630;DHT22;7914;50.842;0.166;2022-07-05T04:40:04;12.80;99.90
15630;DHT22;7914;50.842;0.166;2022-07-05T04:42:30;12.80;99.90
15630;DHT22;7914;50.842;0.166;2022-07-05T04:44:55;12.80;99.90
15630;DHT22;7914;50.842;0.166;2022-07-05T04:47:21;12.70;99.90
15630;DHT22;7914;50.842;0.166;2022-07-05T04:49:47;12.90;99.90
15630;DHT22;7914;50.842;0.166;2022-07-05T04:52:12;12.90;99.90
15630;DHT22;7914;50.842;0.166;2022-07-05T04:54:38;13.00;99.90
15630;DHT22;7914;50.842;0.166;2022-07-05T04:57:04;13.20;99.90
15630;DHT22;7914;50.842;0.166;2022-07-05T04:59:30;13.20;99.90
15630;DHT22;7914;50.842;0.166;2022-07-05T05:01:56;13.40;99.90
15630;DHT22;7914;50.842;0.166;2022-07-05T05:04:21;13.60;99.90
15630;DHT22;7914;50.842;0.166;2022-07-05T05:06:47;14.10;99.90
15630;DHT22;7914;50.842;0.166;2022-07-05T05:09:13;14.30;99.90
15630;DHT22;7914;50.842;0.166;2022-07-05T05:11:38;14.60;99.90
15630;DHT22;7914;50.842;0.166;2022-07-05T05:14:04;14.90;99.90
15630;DHT22;7914;50.842;0.166;2022-07-05T05:16:30;15.00;99.90
15630;DHT22;7914;50.842;0.166;2022-07-05T05:18:56;15.30;99.90
15630;DHT22;7914;50.842;0.166;2022-07-05T05:21:21;15.70;99.90
15630;DHT22;7914;50.842;0.166;2022-07-05T05:23:47;16.10;99.90
15630;DHT22;7914;50.842;0.166;2022-07-05T05:26:13;16.60;99.90
15630;DHT22;7914;50.842;0.166;2022-07-05T05:28:39;16.80;96.00
15630;DHT22;7914;50.842;0.166;2022-07-05T05:31:05;17.20;93.40
15630;DHT22;7914;50.842;0.166;2022-07-05T05:33:33;18.00;95.60
15630;DHT22;7914;50.842;0.166;2022-07-05T05:35:59;18.90;26.50
15630;DHT22;7914;50.842;0.166;2022-07-05T05:38:25;18.70;14.40
15630;DHT22;7914;50.842;0.166;2022-07-05T05:40:51;18.40;28.50
15630;DHT22;7914;50.842;0.166;2022-07-05T05:43:17;18.60;42.30
15630;DHT22;7914;50.842;0.166;2022-07-05T05:45:42;19.00;19.50
15630;DHT22;7914;50.842;0.166;2022-07-05T05:48:08;19.20;1.00
15630;DHT22;7914;50.842;0.166;2022-07-05T05:50:36;19.20;3.80
15630;DHT22;7914;50.842;0.166;2022-07-05T05:53:02;19.60;5.50
15630;DHT22;7914;50.842;0.166;2022-07-05T05:55:29;19.80;11.30
15630;DHT22;7914;50.842;0.166;2022-07-05T05:57:55;20.20;1.00
15630;DHT22;7914;50.842;0.166;2022-07-05T06:00:23;20.20;1.00
15630;DHT22;7914;50.842;0.166;2022-07-05T06:02:50;20.40;1.00
15630;DHT22;7914;50.842;0.166;2022-07-05T06:05:16;20.50;1.00
15630;DHT22;7914;50.842;0.166;2022-07-05T06:07:51;20.10;1.00
15630;DHT22;7914;50.842;0.166;2022-07-05T06:10:25;19.30;1.00
15630;DHT22;7914;50.842;0.166;2022-07-05T06:12:52;18.70;37.20
15630;DHT22;7914;50.842;0.166;2022-07-05T06:15:18;18.40;57.20
15630;DHT22;7914;50.842;0.166;2022-07-05T06:17:44;18.30;67.90
15630;DHT22;7914;50.842;0.166;2022-07-05T06:20:19;18.50;56.80
15630;DHT22;7914;50.842;0.166;2022-07-05T06:22:46;18.30;49.70
15630;DHT22;7914;50.842;0.166;2022-07-05T06:25:11;18.20;61.20
15630;DHT22;7914;50.842;0.166;2022-07-05T06:27:42;18.20;63.20
15630;DHT22;7914;50.842;0.166;2022-07-05T06:30:09;18.10;70.70
15630;DHT22;7914;50.842;0.166;2022-07-05T06:32:35;17.90;71.20
15630;DHT22;7914;50.842;0.166;2022-07-05T06:35:01;17.70;87.70
15630;DHT22;7914;50.842;0.166;2022-07-05T06:37:27;17.70;94.80
15630;DHT22;7914;50.842;0.166;2022-07-05T06:39:52;17.70;99.90
15630;DHT22;7914;50.842;0.166;2022-07-05T06:42:18;17.80;90.10
15630;DHT22;7914;50.842;0.166;2022-07-05T06:44:44;17.90;81.50
15630;DHT22;7914;50.842;0.166;2022-07-05T06:47:10;17.90;76.10
15630;DHT22;7914;50.842;0.166;2022-07-05T06:49:35;17.80;84.30
15630;DHT22;7914;50.842;0.166;2022-07-05T06:52:01;17.80;88.10
15630;DHT22;7914;50.842;0.166;2022-07-05T06:54:27;17.70;86.60
15630;DHT22;7914;50.842;0.166;2022-07-05T06:56:53;17.90;84.70
15630;DHT22;7914;50.842;0.166;2022-07-05T06:59:21;18.30;90.30
15630;DHT22;7914;50.842;0.166;2022-07-05T07:01:47;19.00;53.50
15630;DHT22;7914;50.842;0.166;2022-07-05T07:04:13;19.60;23.50
15630;DHT22;7914;50.842;0.166;2022-07-05T07:06:38;20.20;5.80
15630;DHT22;7914;50.842;0.166;2022-07-05T07:09:04;20.70;1.00
15630;DHT22;7914;50.842;0.166;2022-07-05T07:11:48;21.10;1.00
15630;DHT22;7914;50.842;0.166;2022-07-05T07:14:14;21.40;1.00
15630;DHT22;7914;50.842;0.166;2022-07-05T07:16:40;21.30;1.00
15630;DHT22;7914;50.842;0.166;2022-07-05T07:19:06;21.20;1.00
15630;DHT22;7914;50.842;0.166;2022-07-05T07:21:37;21.50;1.00
15630;DHT22;7914;50.842;0.166;2022-07-05T07:24:03;22.00;1.00
15630;DHT22;7914;50.842;0.166;2022-07-05T07:26:29;22.00;1.00
15630;DHT22;7914;50.842;0.166;2022-07-05T07:28:54;21.80;1.00
15630;DHT22;7914;50.842;0.166;2022-07-05T07:31:20;22.20;1.00
15630;DHT22;7914;50.842;0.166;2022-07-05T07:33:46;22.60;1.00
15630;DHT22;7914;50.842;0.166;2022-07-05T07:36:12;22.50;1.00
15630;DHT22;7914;50.842;0.166;2022-07-05T07:38:38;22.20;1.00
15630;DHT22;7914;50.842;0.166;2022-07-05T07:41:04;22.20;1.00
15630;DHT22;7914;50.842;0.166;2022-07-05T07:43:29;22.20;1.00
15630;DHT22;7914;50.842;0.166;2022-07-05T07:45:55;22.30;1.00
15630;DHT22;7914;50.842;0.166;2022-07-05T07:48:25;22.40;1.00
15630;DHT22;7914;50.842;0.166;2022-07-05T07:50:51;22.20;1.00
15630;DHT22;7914;50.842;0.166;2022-07-05T07:53:16;22.10;1.00
15630;DHT22;7914;50.842;0.166;2022-07-05T07:55:42;21.90;1.00
15630;DHT22;7914;50.842;0.166;2022-07-05T07:58:08;21.60;1.00
15630;DHT22;7914;50.842;0.166;2022-07-05T08:00:33;21.60;1.00
15630;DHT22;7914;50.842;0.166;2022-07-05T08:02:59;21.80;1.00
15630;DHT22;7914;50.842;0.166;2022-07-05T08:05:25;21.60;1.00
15630;DHT22;7914;50.842;0.166;2022-07-05T08:07:51;21.80;1.00
15630;DHT22;7914;50.842;0.166;2022-07-05T08:10:17;21.70;1.00
15630;DHT22;7914;50.842;0.166;2022-07-05T08:12:43;22.00;1.00
15630;DHT22;7914;50.842;0.166;2022-07-05T08:15:09;21.90;1.00
15630;DHT22;7914;50.842;0.166;2022-07-05T08:17:35;22.00;1.00
15630;DHT22;7914;50.842;0.166;2022-07-05T08:20:00;22.20;1.00
15630;DHT22;7914;50.842;0.166;2022-07-05T08:22:44;22.10;1.00
15630;DHT22;7914;50.842;0.166;2022-07-05T08:25:10;21.90;1.00
15630;DHT22;7914;50.842;0.166;2022-07-05T08:27:36;21.80;1.00
15630;DHT22;7914;50.842;0.166;2022-07-05T08:30:01;21.90;1.00
15630;DHT22;7914;50.842;0.166;2022-07-05T08:32:27;21.80;1.00
15630;DHT22;7914;50.842;0.166;2022-07-05T08:34:53;21.90;1.00
15630;DHT22;7914;50.842;0.166;2022-07-05T08:37:18;22.00;1.00
15630;DHT22;7914;50.842;0.166;2022-07-05T08:39:44;22.00;1.00
15630;DHT22;7914;50.842;0.166;2022-07-05T08:42:11;22.20;1.00
15630;DHT22;7914;50.842;0.166;2022-07-05T08:44:38;22.30;1.00
15630;DHT22;7914;50.842;0.166;2022-07-05T08:47:09;22.30;1.00
15630;DHT22;7914;50.842;0.166;2022-07-05T08:49:36;22.60;1.00
15630;DHT22;7914;50.842;0.166;2022-07-05T08:52:03;22.70;1.00
15630;DHT22;7914;50.842;0.166;2022-07-05T08:54:30;22.10;1.00
15630;DHT22;7914;50.842;0.166;2022-07-05T08:56:56;22.20;1.00
15630;DHT22;7914;50.842;0.166;2022-07-05T08:59:21;22.20;1.00
15630;DHT22;7914;50.842;0.166;2022-07-05T09:01:48;22.10;1.00
15630;DHT22;7914;50.842;0.166;2022-07-05T09:04:16;22.20;1.00
15630;DHT22;7914;50.842;0.166;2022-07-05T09:06:47;22.30;1.00
15630;DHT22;7914;50.842;0.166;2022-07-05T09:09:17;22.60;1.00
15630;DHT22;7914;50.842;0.166;2022-07-05T09:11:44;22.90;1.00
15630;DHT22;7914;50.842;0.166;2022-07-05T09:14:21;22.80;1.00
15630;DHT22;7914;50.842;0.166;2022-07-05T09:16:47;23.20;1.00
15630;DHT22;7914;50.842;0.166;2022-07-05T09:19:13;23.10;1.00
15630;DHT22;7914;50.842;0.166;2022-07-05T09:21:39;22.70;1.00
15630;DHT22;7914;50.842;0.166;2022-07-05T09:24:07;22.00;1.00
15630;DHT22;7914;50.842;0.166;2022-07-05T09:26:40;21.70;1.00
15630;DHT22;7914;50.842;0.166;2022-07-05T09:29:09;21.20;1.00
15630;DHT22;7914;50.842;0.166;2022-07-05T09:31:37;21.40;1.00
15630;DHT22;7914;50.842;0.166;2022-07-05T09:34:08;22.00;1.00
15630;DHT22;7914;50.842;0.166;2022-07-05T09:39:17;23.10;1.00
15630;DHT22;7914;50.842;0.166;2022-07-05T09:41:43;23.50;1.00
15630;DHT22;7914;50.842;0.166;2022-07-05T09:44:09;23.40;1.00
15630;DHT22;7914;50.842;0.166;2022-07-05T09:46:35;23.50;1.00
15630;DHT22;7914;50.842;0.166;2022-07-05T09:49:00;23.50;1.00
15630;DHT22;7914;50.842;0.166;2022-07-05T09:51:26;23.00;1.00
15630;DHT22;7914;50.842;0.166;2022-07-05T09:53:54;22.50;1.00
15630;DHT22;7914;50.842;0.166;2022-07-05T09:56:21;22.50;1.00
15630;DHT22;7914;50.842;0.166;2022-07-05T09:58:47;22.70;1.00
15630;DHT22;7914;50.842;0.166;2022-07-05T10:01:29;22.90;1.00
15630;DHT22;7914;50.842;0.166;2022-07-05T10:04:00;23.50;1.00
15630;DHT22;7914;50.842;0.166;2022-07-05T10:06:31;23.80;1.00
15630;DHT22;7914;50.842;0.166;2022-07-05T10:08:57;23.80;1.00
15630;DHT22;7914;50.842;0.166;2022-07-05T10:11:24;23.40;1.00
15630;DHT22;7914;50.842;0.166;2022-07-05T10:13:52;23.50;1.00
15630;DHT22;7914;50.842;0.166;2022-07-05T10:16:22;23.30;1.00
15630;DHT22;7914;50.842;0.166;2022-07-05T10:18:51;23.30;1.00
15630;DHT22;7914;50.842;0.166;2022-07-05T10:21:20;23.70;1.00
15630;DHT22;7914;50.842;0.166;2022-07-05T10:23:51;24.00;1.00
15630;DHT22;7914;50.842;0.166;2022-07-05T10:26:20;24.10;1.00
15630;DHT22;7914;50.842;0.166;2022-07-05T10:28:53;23.90;1.00
15630;DHT22;7914;50.842;0.166;2022-07-05T10:31:19;23.40;1.00
15630;DHT22;7914;50.842;0.166;2022-07-05T10:33:45;23.10;1.00
15630;DHT22;7914;50.842;0.166;2022-07-05T10:36:12;23.00;1.00
15630;DHT22;7914;50.842;0.166;2022-07-05T10:38:43;23.30;1.00
15630;DHT22;7914;50.842;0.166;2022-07-05T10:41:12;23.60;1.00
15630;DHT22;7914;50.842;0.166;2022-07-05T10:43:39;23.50;1.00
15630;DHT22;7914;50.842;0.166;2022-07-05T10:46:05;23.30;1.00
15630;DHT22;7914;50.842;0.166;2022-07-05T10:48:34;23.60;1.00
15630;DHT22;7914;50.842;0.166;2022-07-05T10:58:37;25.00;1.00
15630;DHT22;7914;50.842;0.166;2022-07-05T11:03:44;24.50;1.00
15630;DHT22;7914;50.842;0.166;2022-07-05T11:06:20;24.30;1.00
15630;DHT22;7914;50.842;0.166;2022-07-05T11:09:16;24.40;1.00
15630;DHT22;7914;50.842;0.166;2022-07-05T11:11:44;24.70;1.00
15630;DHT22;7914;50.842;0.166;2022-07-05T11:16:45;25.00;1.00
15630;DHT22;7914;50.842;0.166;2022-07-05T11:19:14;24.90;1.00
15630;DHT22;7914;50.842;0.166;2022-07-05T11:22:04;24.90;1.00
15630;DHT22;7914;50.842;0.166;2022-07-05T11:24:37;25.20;1.00
15630;DHT22;7914;50.842;0.166;2022-07-05T11:27:09;25.50;1.00
15630;DHT22;7914;50.842;0.166;2022-07-05T11:29:45;25.00;1.00
15630;DHT22;7914;50.842;0.166;2022-07-05T11:32:19;24.80;1.00
15630;DHT22;7914;50.842;0.166;2022-07-05T11:34:47;25.10;1.00
15630;DHT22;7914;50.842;0.166;2022-07-05T11:39:45;25.40;1.00
15630;DHT22;7914;50.842;0.166;2022-07-05T11:42:19;25.40;1.00
15630;DHT22;7914;50.842;0.166;2022-07-05T11:44:49;25.10;1.00
15630;DHT22;7914;50.842;0.166;2022-07-05T11:47:16;25.30;1.00
15630;DHT22;7914;50.842;0.166;2022-07-05T11:49:55;25.60;1.00
15630;DHT22;7914;50.842;0.166;2022-07-05T11:52:31;25.70;1.00
15630;DHT22;7914;50.842;0.166;2022-07-05T11:55:02;25.90;1.00
15630;DHT22;7914;50.842;0.166;2022-07-05T11:57:28;26.20;1.00
15630;DHT22;7914;50.842;0.166;2022-07-05T11:59:54;25.90;1.00
15630;DHT22;7914;50.842;0.166;2022-07-05T12:02:20;25.80;1.00
15630;DHT22;7914;50.842;0.166;2022-07-05T12:04:58;26.00;1.00
15630;DHT22;7914;50.842;0.166;2022-07-05T12:07:34;26.20;1.00
15630;DHT22;7914;50.842;0.166;2022-07-05T12:10:01;26.40;1.00
15630;DHT22;7914;50.842;0.166;2022-07-05T12:12:46;26.40;1.00
15630;DHT22;7914;50.842;0.166;2022-07-05T12:15:15;26.30;1.00
15630;DHT22;7914;50.842;0.166;2022-07-05T12:17:45;26.40;1.00
15630;DHT22;7914;50.842;0.166;2022-07-05T12:20:12;26.20;1.00
15630;DHT22;7914;50.842;0.166;2022-07-05T12:22:43;26.20;1.00
15630;DHT22;7914;50.842;0.166;2022-07-05T12:25:13;26.00;1.00
15630;DHT22;7914;50.842;0.166;2022-07-05T12:27:41;25.70;1.00
15630;DHT22;7914;50.842;0.166;2022-07-05T12:30:09;25.20;1.00
15630;DHT22;7914;50.842;0.166;2022-07-05T12:38:14;24.20;1.00
15630;DHT22;7914;50.842;0.166;2022-07-05T12:40:43;24.40;1.00
15630;DHT22;7914;50.842;0.166;2022-07-05T12:43:18;24.20;1.00
15630;DHT22;7914;50.842;0.166;2022-07-05T12:46:07;24.30;1.00
15630;DHT22;7914;50.842;0.166;2022-07-05T12:48:35;24.40;1.00
15630;DHT22;7914;50.842;0.166;2022-07-05T12:51:01;24.50;1.00
15630;DHT22;7914;50.842;0.166;2022-07-05T12:53:27;24.40;1.00
15630;DHT22;7914;50.842;0.166;2022-07-05T12:56:13;24.40;1.00
15630;DHT22;7914;50.842;0.166;2022-07-05T12:59:03;24.40;1.00
15630;DHT22;7914;50.842;0.166;2022-07-05T13:01:32;24.50;1.00
15630;DHT22;7914;50.842;0.166;2022-07-05T13:04:16;24.50;1.00
15630;DHT22;7914;50.842;0.166;2022-07-05T13:07:02;24.40;1.00
15630;DHT22;7914;50.842;0.166;2022-07-05T13:09:34;24.50;1.00
15630;DHT22;7914;50.842;0.166;2022-07-05T13:14:37;24.60;1.00
15630;DHT22;7914;50.842;0.166;2022-07-05T13:17:04;24.50;1.00
15630;DHT22;7914;50.842;0.166;2022-07-05T13:19:30;24.50;1.00
15630;DHT22;7914;50.842;0.166;2022-07-05T13:21:56;24.50;1.00
15630;DHT22;7914;50.842;0.166;2022-07-05T13:24:22;24.40;1.00
15630;DHT22;7914;50.842;0.166;2022-07-05T13:26:47;24.50;1.00
15630;DHT22;7914;50.842;0.166;2022-07-05T13:29:13;24.50;1.00
15630;DHT22;7914;50.842;0.166;2022-07-05T13:31:39;24.50;1.00
15630;DHT22;7914;50.842;0.166;2022-07-05T13:34:04;24.40;1.00
15630;DHT22;7914;50.842;0.166;2022-07-05T13:36:30;24.40;1.00
15630;DHT22;7914;50.842;0.166;2022-07-05T13:38:56;24.30;1.00
15630;DHT22;7914;50.842;0.166;2022-07-05T13:41:21;24.20;1.00
15630;DHT22;7914;50.842;0.166;2022-07-05T13:43:47;24.40;1.00
15630;DHT22;7914;50.842;0.166;2022-07-05T13:46:13;24.50;1.00
15630;DHT22;7914;50.842;0.166;2022-07-05T13:48:39;24.50;1.00
15630;DHT22;7914;50.842;0.166;2022-07-05T13:51:06;24.60;1.00
15630;DHT22;7914;50.842;0.166;2022-07-05T13:53:32;24.60;1.00
15630;DHT22;7914;50.842;0.166;2022-07-05T13:55:58;24.80;1.00
15630;DHT22;7914;50.842;0.166;2022-07-05T13:58:24;24.80;1.00
15630;DHT22;7914;50.842;0.166;2022-07-05T14:00:50;24.70;1.00
15630;DHT22;7914;50.842;0.166;2022-07-05T14:03:16;24.70;1.00
15630;DHT22;7914;50.842;0.166;2022-07-05T14:05:42;24.60;1.00
15630;DHT22;7914;50.842;0.166;2022-07-05T14:08:10;24.50;1.00
15630;DHT22;7914;50.842;0.166;2022-07-05T14:10:37;24.60;1.00
15630;DHT22;7914;50.842;0.166;2022-07-05T14:13:03;24.70;1.00
15630;DHT22;7914;50.842;0.166;2022-07-05T14:15:29;24.80;1.00
15630;DHT22;7914;50.842;0.166;2022-07-05T14:17:55;24.90;1.00
15630;DHT22;7914;50.842;0.166;2022-07-05T14:20:21;25.00;1.00
15630;DHT22;7914;50.842;0.166;2022-07-05T14:22:46;25.10;1.00
15630;DHT22;7914;50.842;0.166;2022-07-05T14:25:12;25.10;1.00
15630;DHT22;7914;50.842;0.166;2022-07-05T14:27:38;25.10;1.00
15630;DHT22;7914;50.842;0.166;2022-07-05T14:30:05;25.20;1.00
15630;DHT22;7914;50.842;0.166;2022-07-05T14:32:30;25.30;1.00
15630;DHT22;7914;50.842;0.166;2022-07-05T14:34:56;25.20;1.00
15630;DHT22;7914;50.842;0.166;2022-07-05T14:37:22;25.40;1.00
15630;DHT22;7914;50.842;0.166;2022-07-05T14:39:48;25.70;1.00
15630;DHT22;7914;50.842;0.166;2022-07-05T14:42:15;25.50;1.00
15630;DHT22;7914;50.842;0.166;2022-07-05T14:44:41;25.50;1.00
15630;DHT22;7914;50.842;0.166;2022-07-05T14:47:07;25.40;1.00
15630;DHT22;7914;50.842;0.166;2022-07-05T14:49:32;25.30;1.00
15630;DHT22;7914;50.842;0.166;2022-07-05T14:51:58;25.00;1.00
15630;DHT22;7914;50.842;0.166;2022-07-05T14:54:24;25.00;1.00
15630;DHT22;7914;50.842;0.166;2022-07-05T14:56:49;24.70;1.00
15630;DHT22;7914;50.842;0.166;2022-07-05T14:59:15;24.40;1.00
15630;DHT22;7914;50.842;0.166;2022-07-05T15:01:41;24.50;1.00
15630;DHT22;7914;50.842;0.166;2022-07-05T15:04:07;24.40;1.00
15630;DHT22;7914;50.842;0.166;2022-07-05T15:06:33;24.20;1.00
15630;DHT22;7914;50.842;0.166;2022-07-05T15:08:59;24.00;1.00
15630;DHT22;7914;50.842;0.166;2022-07-05T15:11:24;24.20;1.00
15630;DHT22;7914;50.842;0.166;2022-07-05T15:13:50;24.10;1.00
15630;DHT22;7914;50.842;0.166;2022-07-05T15:16:17;24.20;1.00
15630;DHT22;7914;50.842;0.166;2022-07-05T15:18:42;24.10;1.00
15630;DHT22;7914;50.842;0.166;2022-07-05T15:21:08;23.90;1.00
15630;DHT22;7914;50.842;0.166;2022-07-05T15:23:34;23.60;1.00
15630;DHT22;7914;50.842;0.166;2022-07-05T15:26:00;23.60;1.00
15630;DHT22;7914;50.842;0.166;2022-07-05T15:28:26;23.50;1.00
15630;DHT22;7914;50.842;0.166;2022-07-05T15:30:52;23.40;1.00
15630;DHT22;7914;50.842;0.166;2022-07-05T15:33:18;23.30;1.00
15630;DHT22;7914;50.842;0.166;2022-07-05T15:35:47;23.30;1.00
15630;DHT22;7914;50.842;0.166;2022-07-05T15:38:13;23.30;1.00
15630;DHT22;7914;50.842;0.166;2022-07-05T15:40:38;23.30;1.00
15630;DHT22;7914;50.842;0.166;2022-07-05T15:43:04;23.20;1.00
15630;DHT22;7914;50.842;0.166;2022-07-05T15:45:29;23.10;1.00
15630;DHT22;7914;50.842;0.166;2022-07-05T15:47:55;23.20;1.00
15630;DHT22;7914;50.842;0.166;2022-07-05T15:50:21;23.10;1.00
15630;DHT22;7914;50.842;0.166;2022-07-05T15:52:47;23.30;1.00
15630;DHT22;7914;50.842;0.166;2022-07-05T15:55:12;23.30;1.00
15630;DHT22;7914;50.842;0.166;2022-07-05T15:57:38;23.30;1.00
15630;DHT22;7914;50.842;0.166;2022-07-05T16:00:05;23.50;1.00
15630;DHT22;7914;50.842;0.166;2022-07-05T16:02:31;23.50;1.00
15630;DHT22;7914;50.842;0.166;2022-07-05T16:04:56;23.60;1.00
15630;DHT22;7914;50.842;0.166;2022-07-05T16:07:22;23.70;1.00
15630;DHT22;7914;50.842;0.166;2022-07-05T16:09:48;23.60;1.00
15630;DHT22;7914;50.842;0.166;2022-07-05T16:12:17;23.40;1.00
15630;DHT22;7914;50.842;0.166;2022-07-05T16:14:42;23.40;1.00
15630;DHT22;7914;50.842;0.166;2022-07-05T16:17:08;23.50;1.00
15630;DHT22;7914;50.842;0.166;2022-07-05T16:19:34;23.60;1.00
15630;DHT22;7914;50.842;0.166;2022-07-05T16:22:00;23.40;1.00